Time;durP1;ratioP1;P1;durP2;ratioP2;P2;SDS_P1;SDS_P2;PMS_P1;PMS_P2;Temp;Humidity;BMP_temperature;BMP_pressure;BME280_temperature;BME280_humidity;BME280_pressure;Samples;Min_cycle;Max_cycle;Signal;HPM_P1;HPM_P2
2023/11/08 00:01:35;;;;;;;1.33;1.20;;;;;;;20.71;44.16;100787.84;5025156;28;20029;-71
2023/11/08 00:04:00;;;;;;;2.00;1.10;;;;;;;20.78;43.98;100804.59;5027880;28;20045;-71
2023/11/08 00:06:26;;;;;;;1.48;1.38;;;;;;;20.74;44.15;100800.69;5035511;28;20037;-72
2023/11/08 00:08:52;;;;;;;1.52;1.05;;;;;;;20.73;43.98;100797.22;5026331;28;20075;-71
2023/11/08 00:11:23;;;;;;;1.50;1.25;;;;;;;20.72;44.16;100802.69;5023820;28;20140;-72
2023/11/08 00:13:50;;;;;;;1.55;0.93;;;;;;;20.73;44.18;100804.34;5024547;28;20041;-72
2023/11/08 00:16:17;;;;;;;1.95;1.10;;;;;;;20.69;44.20;100803.09;5023478;28;20088;-72
2023/11/08 00:18:44;;;;;;;0.80;0.80;;;;;;;20.69;44.42;100793.31;5016529;28;20714;-71
2023/11/08 00:21:10;;;;;;;1.10;1.02;;;;;;;20.60;44.24;100783.84;5024631;28;20056;-72
2023/11/08 00:23:35;;;;;;;1.42;1.33;;;;;;;20.69;44.13;100805.72;5023581;28;20038;-71
2023/11/08 00:26:01;;;;;;;1.38;1.00;;;;;;;20.68;44.10;100793.50;5024880;28;20115;-71
2023/11/08 00:28:27;;;;;;;1.80;1.10;;;;;;;20.64;44.21;100794.84;5023167;28;20696;-71
2023/11/08 00:30:53;;;;;;;1.00;0.90;;;;;;;20.66;44.27;100791.03;5028993;28;20060;-71
2023/11/08 00:33:18;;;;;;;1.48;1.33;;;;;;;20.65;44.20;100786.75;5028767;28;20041;-71
2023/11/08 00:35:44;;;;;;;1.52;1.33;;;;;;;20.60;44.29;100788.31;5027415;28;20518;-72
2023/11/08 00:38:10;;;;;;;1.63;1.20;;;;;;;20.65;44.10;100809.75;5034961;28;20048;-72
2023/11/08 00:40:35;;;;;;;1.17;0.93;;;;;;;20.59;44.30;100807.84;5024655;28;20116;-71
2023/11/08 00:43:01;;;;;;;1.77;1.08;;;;;;;20.63;44.21;100822.31;5021817;28;20076;-71
2023/11/08 00:45:27;;;;;;;1.13;1.00;;;;;;;20.60;44.31;100820.88;5011731;28;20055;-71
2023/11/08 00:47:53;;;;;;;1.42;0.98;;;;;;;20.59;44.21;100821.06;5021840;28;20443;-72
2023/11/08 00:50:19;;;;;;;1.02;0.98;;;;;;;20.61;44.16;100826.97;5020194;28;20049;-72
2023/11/08 00:52:44;;;;;;;1.30;1.02;;;;;;;20.61;44.32;100811.09;5023702;28;20099;-71
2023/11/08 00:55:10;;;;;;;0.80;0.80;;;;;;;20.53;44.24;100812.03;5025223;28;20120;-72
2023/11/08 00:57:36;;;;;;;0.85;0.60;;;;;;;20.54;44.07;100815.50;5028768;28;20049;-71
2023/11/08 01:00:07;;;;;;;1.35;0.88;;;;;;;20.58;44.23;100816.78;5021745;28;20778;-71
2023/11/08 01:02:33;;;;;;;1.25;1.00;;;;;;;20.43;44.21;100790.34;5017395;28;20037;-72
2023/11/08 01:04:59;;;;;;;1.23;1.10;;;;;;;20.56;44.39;100816.97;5016343;28;20033;-72
2023/11/08 01:07:24;;;;;;;1.02;1.00;;;;;;;20.49;44.20;100816.88;5020900;28;20029;-72
2023/11/08 01:09:50;;;;;;;1.50;1.08;;;;;;;20.56;44.33;100824.06;5020614;28;20038;-72
2023/11/08 01:12:16;;;;;;;1.70;1.45;;;;;;;20.53;44.12;100835.84;5021101;28;20510;-71
2023/11/08 01:14:42;;;;;;;1.90;1.27;;;;;;;20.45;44.24;100817.41;5023895;28;20124;-71
2023/11/08 01:17:10;;;;;;;1.58;1.10;;;;;;;20.49;44.48;100832.75;5025453;28;20049;-71
2023/11/08 01:19:36;;;;;;;1.75;1.17;;;;;;;20.52;44.34;100834.22;5019708;28;20554;-72
2023/11/08 01:22:05;;;;;;;0.85;0.85;;;;;;;20.40;44.36;100825.06;5028032;28;20087;-71
2023/11/08 01:24:32;;;;;;;1.20;0.82;;;;;;;20.50;44.32;100844.97;5026138;28;20064;-71
2023/11/08 01:27:00;;;;;;;1.83;1.13;;;;;;;20.51;44.19;100846.63;5022488;28;20041;-71
2023/11/08 01:29:25;;;;;;;2.30;1.02;;;;;;;20.45;44.36;100846.50;5027782;28;20189;-71
2023/11/08 01:31:51;;;;;;;1.00;0.88;;;;;;;20.49;44.21;100853.94;5025282;28;20049;-71
2023/11/08 01:34:16;;;;;;;0.95;0.90;;;;;;;20.47;44.20;100849.81;5016797;28;20053;-71
2023/11/08 01:36:44;;;;;;;1.88;1.40;;;;;;;20.39;44.25;100836.66;5021676;28;20042;-71
2023/11/08 01:39:10;;;;;;;1.70;1.00;;;;;;;20.47;44.27;100849.81;5019627;28;20561;-72
2023/11/08 01:41:36;;;;;;;1.95;1.35;;;;;;;20.46;44.42;100854.25;5020894;28;20033;-72
2023/11/08 01:44:03;;;;;;;1.02;0.90;;;;;;;20.46;44.25;100846.31;5023845;28;20061;-72
2023/11/08 01:46:29;;;;;;;1.45;1.10;;;;;;;20.33;44.16;100824.16;5036539;28;20530;-71
2023/11/08 01:48:56;;;;;;;1.15;0.98;;;;;;;20.45;44.35;100849.16;5012151;28;20484;-71
2023/11/08 01:51:24;;;;;;;0.93;0.90;;;;;;;20.45;44.31;100851.81;5025502;28;20052;-71
2023/11/08 01:53:52;;;;;;;1.75;1.50;;;;;;;20.42;44.38;100850.34;5013256;28;20507;-72
2023/11/08 01:56:19;;;;;;;1.55;1.10;;;;;;;20.41;44.46;100856.66;5026665;28;20072;-72
2023/11/08 01:58:46;;;;;;;1.30;0.98;;;;;;;20.39;44.43;100855.97;5029270;28;20116;-71
2023/11/08 02:01:12;;;;;;;1.33;1.23;;;;;;;20.35;44.41;100844.13;5024648;28;20048;-72
2023/11/08 02:03:39;;;;;;;1.40;0.90;;;;;;;20.41;44.37;100858.47;5023074;28;20033;-71
2023/11/08 02:06:10;;;;;;;1.00;1.00;;;;;;;20.41;44.46;100853.19;5019518;28;20032;-71
2023/11/08 02:08:37;;;;;;;1.33;1.17;;;;;;;20.40;44.24;100862.09;5020802;28;20053;-71
2023/11/08 02:11:03;;;;;;;1.40;1.30;;;;;;;20.40;44.54;100878.78;5023132;28;20052;-71
2023/11/08 02:13:31;;;;;;;1.30;1.20;;;;;;;20.39;44.36;100874.50;5021359;28;20472;-71
2023/11/08 02:15:58;;;;;;;1.98;1.08;;;;;;;20.41;44.27;100871.69;5019113;28;20629;-71
2023/11/08 02:18:23;;;;;;;1.63;1.20;;;;;;;20.37;44.22;100868.56;5039705;28;20586;-71
2023/11/08 02:20:49;;;;;;;0.93;0.90;;;;;;;20.38;44.36;100866.75;5003838;28;20045;-71
2023/11/08 02:23:15;;;;;;;1.00;0.88;;;;;;;20.37;44.59;100858.00;5025667;28;20071;-71
2023/11/08 02:25:44;;;;;;;2.28;1.15;;;;;;;20.29;44.36;100847.50;5020929;28;20045;-71
2023/11/08 02:28:10;;;;;;;0.85;0.85;;;;;;;20.29;44.46;100858.09;5028009;28;20048;-71
2023/11/08 02:30:35;;;;;;;1.48;1.10;;;;;;;20.36;44.37;100872.22;5018042;28;20044;-72
2023/11/08 02:33:01;;;;;;;1.33;1.20;;;;;;;20.36;44.50;100874.84;5026755;28;20870;-72
2023/11/08 02:35:26;;;;;;;1.02;0.90;;;;;;;20.33;44.19;100861.19;5018982;28;20037;-71
2023/11/08 02:37:52;;;;;;;1.05;0.90;;;;;;;20.39;44.30;100868.38;5034187;28;20073;-72
2023/11/08 02:40:18;;;;;;;1.92;1.30;;;;;;;20.36;44.33;100858.16;5029328;28;20076;-71
2023/11/08 02:42:48;;;;;;;0.80;0.80;;;;;;;20.37;44.46;100858.00;5015428;28;20089;-72
2023/11/08 02:45:14;;;;;;;1.38;0.90;;;;;;;20.33;44.28;100859.38;5026564;28;20037;-72
2023/11/08 02:47:40;;;;;;;1.23;1.05;;;;;;;20.30;44.33;100845.69;5032726;28;20118;-72
2023/11/08 02:50:06;;;;;;;1.38;1.02;;;;;;;20.36;44.29;100859.00;5021258;28;20050;-71
2023/11/08 02:52:32;;;;;;;1.27;1.17;;;;;;;20.37;44.41;100859.81;5028416;28;20098;-71
2023/11/08 02:54:58;;;;;;;1.13;1.00;;;;;;;20.37;44.36;100851.88;5032286;28;20032;-71
2023/11/08 02:57:24;;;;;;;1.00;0.90;;;;;;;20.38;44.21;100861.44;5030591;28;20140;-72
2023/11/08 02:59:51;;;;;;;1.23;0.90;;;;;;;20.34;44.38;100862.81;5014362;28;20132;-71
2023/11/08 03:02:17;;;;;;;1.10;1.00;;;;;;;20.30;44.36;100849.16;5026434;28;20484;-71
2023/11/08 03:04:43;;;;;;;1.92;1.05;;;;;;;20.40;44.32;100864.72;5023157;28;20038;-72
2023/11/08 03:07:09;;;;;;;0.88;0.88;;;;;;;20.32;44.28;100870.13;5020072;28;20045;-72
2023/11/08 03:09:34;;;;;;;3.03;1.27;;;;;;;20.36;44.56;100874.84;5015838;28;20038;-71
2023/11/08 03:12:00;;;;;;;1.75;1.38;;;;;;;20.26;44.57;100884.06;5005037;28;20408;-72
2023/11/08 03:14:26;;;;;;;1.77;1.02;;;;;;;20.35;44.29;100886.44;5025427;28;20092;-72
2023/11/08 03:16:52;;;;;;;1.80;1.23;;;;;;;20.27;44.45;100868.00;5025283;28;20781;-72
2023/11/08 03:19:20;;;;;;;1.88;1.30;;;;;;;20.33;44.42;100885.81;5019213;28;20068;-71
2023/11/08 03:21:48;;;;;;;1.67;1.27;;;;;;;20.28;44.30;100864.34;5028151;28;20052;-71
2023/11/08 03:24:14;;;;;;;1.90;1.15;;;;;;;20.25;44.49;100858.63;5029458;28;20498;-72
2023/11/08 03:26:40;;;;;;;1.10;1.00;;;;;;;20.29;44.67;100875.75;5021061;28;20053;-72
2023/11/08 03:29:06;;;;;;;1.17;1.02;;;;;;;20.32;44.41;100883.34;5020351;28;20041;-71
2023/11/08 03:31:32;;;;;;;1.20;1.00;;;;;;;20.29;44.32;100870.47;5020946;28;20051;-71
2023/11/08 03:33:58;;;;;;;1.05;0.95;;;;;;;20.33;44.80;100879.69;5025594;28;20029;-71
2023/11/08 03:36:28;;;;;;;1.13;1.02;;;;;;;20.31;44.22;100877.25;5021371;28;20033;-72
2023/11/08 03:38:55;;;;;;;1.70;1.00;;;;;;;20.33;44.43;100874.41;5030513;28;20052;-72
2023/11/08 03:41:24;;;;;;;2.38;1.15;;;;;;;20.28;44.38;100872.28;5025196;28;20047;-71
2023/11/08 03:43:54;;;;;;;1.45;1.23;;;;;;;20.32;44.37;100883.34;5023946;28;20127;-72
2023/11/08 03:46:20;;;;;;;1.13;1.02;;;;;;;20.31;44.45;100887.00;5024390;28;20049;-71
2023/11/08 03:48:58;;;;;;;1.10;1.10;;;;;;;20.22;44.39;100875.66;5030502;28;20080;-72
2023/11/08 03:51:24;;;;;;;1.00;0.90;;;;;;;20.32;44.71;100888.63;5025391;28;20632;-71
2023/11/08 03:53:51;;;;;;;1.40;1.00;;;;;;;20.31;44.59;100892.28;5026111;28;20066;-71
2023/11/08 03:56:17;;;;;;;1.33;0.85;;;;;;;20.32;44.37;100897.38;5032792;28;20040;-72
2023/11/08 03:58:43;;;;;;;2.08;1.00;;;;;;;20.30;44.52;100894.09;5023861;28;20120;-72
2023/11/08 04:01:08;;;;;;;1.40;1.00;;;;;;;20.32;44.64;100901.84;5023209;28;20128;-72
2023/11/08 04:03:34;;;;;;;1.02;1.00;;;;;;;20.32;44.40;100902.69;5018940;28;20041;-72
2023/11/08 04:06:00;;;;;;;1.10;1.00;;;;;;;20.32;44.49;100900.03;5024729;28;20042;-71
2023/11/08 04:08:26;;;;;;;1.10;1.00;;;;;;;20.30;44.37;100896.75;5030667;28;20038;-71
2023/11/08 04:10:52;;;;;;;1.50;1.27;;;;;;;20.27;44.42;100888.34;5021729;28;20049;-71
2023/11/08 04:13:18;;;;;;;1.70;1.00;;;;;;;20.31;44.60;100908.97;5027113;28;20037;-72
2023/11/08 04:15:44;;;;;;;1.10;1.10;;;;;;;20.32;44.44;100904.50;5024011;28;20851;-71
2023/11/08 04:18:09;;;;;;;0.80;0.80;;;;;;;20.31;44.39;100900.22;5026184;28;20040;-72
2023/11/08 04:20:35;;;;;;;1.15;1.13;;;;;;;20.30;44.26;100894.09;5033479;28;20368;-71
2023/11/08 04:23:00;;;;;;;0.80;0.80;;;;;;;20.31;44.48;100895.75;5026293;28;20045;-72
2023/11/08 04:25:26;;;;;;;1.40;1.30;;;;;;;20.32;44.35;100909.78;5029275;28;20069;-72
2023/11/08 04:27:52;;;;;;;1.48;1.10;;;;;;;20.26;44.46;100891.97;5028145;28;20063;-71
2023/11/08 04:30:17;;;;;;;1.38;1.10;;;;;;;20.32;44.45;100896.56;5030939;28;20041;-72
2023/11/08 04:32:43;;;;;;;1.35;1.10;;;;;;;20.25;44.40;100885.06;5022978;28;20083;-72
2023/11/08 04:35:10;;;;;;;1.95;1.40;;;;;;;20.31;44.51;100900.22;5027365;28;20480;-72
2023/11/08 04:37:38;;;;;;;1.10;1.00;;;;;;;20.25;44.48;100885.06;5029564;28;20060;-71
2023/11/08 04:40:04;;;;;;;1.20;1.10;;;;;;;20.31;44.47;100887.00;5029749;28;20565;-72
2023/11/08 04:42:30;;;;;;;1.20;1.02;;;;;;;20.26;44.41;100887.50;5022308;28;20043;-71
2023/11/08 04:44:56;;;;;;;1.63;1.27;;;;;;;20.21;44.44;100884.59;5023623;28;20033;-71
2023/11/08 04:47:21;;;;;;;1.30;1.20;;;;;;;20.15;44.44;100872.94;5030852;28;20049;-72
2023/11/08 04:49:48;;;;;;;1.85;1.08;;;;;;;20.21;44.59;100895.19;5027529;28;20037;-71
2023/11/08 04:52:14;;;;;;;0.95;0.95;;;;;;;20.22;44.36;100889.72;5029255;28;20045;-72
2023/11/08 04:54:40;;;;;;;1.55;1.25;;;;;;;20.16;44.55;100881.69;5024626;28;20140;-72
2023/11/08 04:57:06;;;;;;;1.05;1.05;;;;;;;20.22;44.44;100892.34;5030115;28;20108;-71
2023/11/08 04:59:32;;;;;;;1.77;1.02;;;;;;;20.25;44.63;100901.75;5020172;28;20451;-71
2023/11/08 05:01:59;;;;;;;1.48;0.90;;;;;;;20.00;44.74;100868.63;5025293;28;20492;-72
2023/11/08 05:04:25;;;;;;;1.25;1.17;;;;;;;20.24;44.57;100902.75;5040355;28;20052;-71
2023/11/08 05:06:50;;;;;;;1.20;1.10;;;;;;;20.16;44.51;100890.44;5021747;28;20038;-71
2023/11/08 05:09:17;;;;;;;1.33;1.15;;;;;;;20.23;44.48;100901.91;5012530;28;20049;-72
2023/11/08 05:11:42;;;;;;;1.08;0.98;;;;;;;20.24;44.60;100902.75;5027018;28;20045;-72
2023/11/08 05:14:08;;;;;;;1.77;1.50;;;;;;;20.19;44.41;100892.72;5025449;28;20041;-72
2023/11/08 05:16:34;;;;;;;1.27;0.90;;;;;;;20.27;44.49;100909.50;5023974;28;20494;-72
2023/11/08 05:18:59;;;;;;;1.67;1.15;;;;;;;20.00;44.46;100873.91;5023530;28;20048;-72
2023/11/08 05:21:26;;;;;;;1.58;1.17;;;;;;;20.23;44.50;100909.03;5025384;28;20323;-72
2023/11/08 05:23:52;;;;;;;1.48;1.23;;;;;;;20.18;44.51;100898.19;5028124;28;20132;-71
2023/11/08 05:26:21;;;;;;;1.13;1.00;;;;;;;20.22;44.44;100902.94;5022232;28;20050;-71
2023/11/08 05:28:47;;;;;;;1.25;1.15;;;;;;;20.18;44.52;100906.94;5030579;28;20111;-72
2023/11/08 05:31:12;;;;;;;2.67;1.38;;;;;;;20.14;44.47;100900.38;5011348;28;20052;-71
2023/11/08 05:33:41;;;;;;;1.77;1.38;;;;;;;20.23;44.57;100923.06;5033680;28;20108;-72
2023/11/08 05:36:07;;;;;;;2.15;1.33;;;;;;;20.21;44.58;100917.16;5028516;28;20049;-71
2023/11/08 05:38:32;;;;;;;3.10;1.30;;;;;;;20.19;44.80;100916.50;5033325;28;20121;-72
2023/11/08 05:40:58;;;;;;;0.85;0.85;;;;;;;20.20;44.60;100904.94;5030027;28;20499;-72
2023/11/08 05:43:25;;;;;;;1.05;0.93;;;;;;;20.14;44.53;100899.56;5018455;28;20046;-72
2023/11/08 05:45:51;;;;;;;1.35;1.10;;;;;;;20.22;44.43;100918.78;5027177;28;20045;-71
2023/11/08 05:48:18;;;;;;;2.75;1.55;;;;;;;20.03;44.44;100881.47;5025043;28;20049;-72
2023/11/08 05:50:44;;;;;;;1.23;1.00;;;;;;;20.28;44.24;100914.59;5024230;28;20077;-72
2023/11/08 05:53:14;;;;;;;1.52;1.20;;;;;;;20.34;44.36;100915.72;5033682;28;20052;-71
2023/11/08 05:55:42;;;;;;;2.13;1.00;;;;;;;20.40;44.30;100923.75;5030691;28;20024;-71
2023/11/08 05:58:08;;;;;;;1.42;1.20;;;;;;;20.33;44.19;100906.97;5033015;28;20024;-72
2023/11/08 06:00:34;;;;;;;1.00;1.00;;;;;;;20.38;44.44;100911.69;5033617;28;20123;-72
2023/11/08 06:03:00;;;;;;;1.35;1.20;;;;;;;20.42;44.32;100924.41;5025038;28;20033;-72
2023/11/08 06:05:28;;;;;;;1.38;1.27;;;;;;;20.36;44.30;100908.41;5026904;28;20033;-72
2023/11/08 06:07:56;;;;;;;1.70;0.93;;;;;;;20.42;44.51;100924.41;5033488;28;20069;-72
2023/11/08 06:10:22;;;;;;;0.90;0.90;;;;;;;20.33;44.55;100922.00;5018007;28;20504;-71
2023/11/08 06:12:47;;;;;;;1.15;1.10;;;;;;;20.42;44.51;100929.69;5016096;28;20096;-71
2023/11/08 06:15:14;;;;;;;2.00;1.17;;;;;;;20.42;44.47;100926.22;5024225;28;20038;-72
2023/11/08 06:17:39;;;;;;;1.13;1.10;;;;;;;20.37;44.42;100928.56;5027270;28;20040;-72
2023/11/08 06:20:08;;;;;;;1.05;0.90;;;;;;;20.35;44.50;100927.94;5024751;28;20045;-72
2023/11/08 06:22:34;;;;;;;2.53;1.20;;;;;;;20.31;44.46;100927.47;5020419;28;20570;-72
2023/11/08 06:25:00;;;;;;;1.90;1.30;;;;;;;20.40;44.46;100944.91;5021350;28;20495;-72
2023/11/08 06:27:26;;;;;;;1.10;1.00;;;;;;;20.17;44.40;100907.13;5027657;28;20494;-72
2023/11/08 06:29:51;;;;;;;1.55;1.23;;;;;;;20.20;44.40;100918.16;5028962;28;20803;-72
2023/11/08 06:32:20;;;;;;;2.20;1.33;;;;;;;20.39;44.56;100953.03;5024198;28;20139;-71
2023/11/08 06:34:46;;;;;;;1.20;1.10;;;;;;;20.38;44.33;100957.47;5021149;28;20041;-72
2023/11/08 06:37:13;;;;;;;1.30;1.20;;;;;;;20.37;44.44;100957.66;5022205;28;20641;-72
2023/11/08 06:39:39;;;;;;;1.42;1.33;;;;;;;20.39;44.81;100966.25;5026986;28;20033;-72
2023/11/08 06:42:05;;;;;;;1.48;1.38;;;;;;;20.39;44.48;100966.25;5023907;28;20570;-72
2023/11/08 06:44:31;;;;;;;2.47;1.42;;;;;;;20.33;44.45;100959.84;5024566;28;20038;-72
2023/11/08 06:46:56;;;;;;;1.90;1.00;;;;;;;20.31;44.52;100955.75;5022579;28;20110;-72
2023/11/08 06:49:22;;;;;;;1.45;1.35;;;;;;;20.39;44.47;100968.88;5023010;28;20096;-72
2023/11/08 06:51:48;;;;;;;2.90;1.45;;;;;;;20.37;44.56;100961.13;5026699;28;20392;-72
2023/11/08 06:54:13;;;;;;;1.30;1.02;;;;;;;20.32;44.48;100963.50;5029661;28;20041;-72
2023/11/08 06:56:39;;;;;;;1.25;1.15;;;;;;;20.32;44.48;100965.34;5030946;28;20518;-72
2023/11/08 06:59:04;;;;;;;1.42;1.33;;;;;;;20.29;44.47;100963.88;5022058;28;20111;-72
2023/11/08 07:01:32;;;;;;;4.53;1.50;;;;;;;20.24;44.65;100955.63;5026139;28;20049;-72
2023/11/08 07:03:58;;;;;;;1.50;1.40;;;;;;;20.35;44.45;100981.66;5021346;28;20084;-72
2023/11/08 07:06:24;;;;;;;3.25;1.50;;;;;;;20.35;44.38;100975.53;5025894;28;20554;-72
2023/11/08 07:08:49;;;;;;;1.88;1.52;;;;;;;20.34;44.63;100979.19;5028338;28;20462;-72
2023/11/08 07:11:15;;;;;;;1.85;1.50;;;;;;;20.10;44.54;100946.66;5026319;28;20041;-71
2023/11/08 07:13:41;;;;;;;1.20;1.10;;;;;;;20.33;44.50;100986.31;5026054;28;20081;-72
2023/11/08 07:16:07;;;;;;;1.63;1.40;;;;;;;20.31;44.57;100976.91;5032682;28;20043;-71
2023/11/08 07:18:32;;;;;;;1.60;1.30;;;;;;;20.27;44.69;100972.94;5026462;28;20495;-72
2023/11/08 07:20:58;;;;;;;1.65;1.35;;;;;;;20.40;44.35;100978.47;5021841;28;20033;-72
2023/11/08 07:23:24;;;;;;;1.15;1.05;;;;;;;20.50;44.38;100987.84;5020031;28;20034;-71
2023/11/08 07:25:50;;;;;;;1.65;1.38;;;;;;;20.69;44.01;100981.19;5021129;28;20065;-72
2023/11/08 07:28:15;;;;;;;1.15;1.00;;;;;;;20.98;43.43;100985.66;5024490;28;20037;-72
2023/11/08 07:30:41;;;;;;;1.20;1.10;;;;;;;21.28;42.74;100983.84;5031804;28;20121;-72
2023/11/08 07:33:07;;;;;;;1.90;1.35;;;;;;;21.36;43.02;100974.94;5034123;28;20053;-72
2023/11/08 07:35:32;;;;;;;1.55;1.25;;;;;;;21.31;43.01;100972.03;5024936;28;20039;-72
2023/11/08 07:37:58;;;;;;;2.90;1.45;;;;;;;21.19;43.39;100982.28;5033117;28;20397;-72
2023/11/08 07:40:24;;;;;;;2.38;1.45;;;;;;;21.15;43.51;100985.47;5020336;28;20046;-72
2023/11/08 07:42:50;;;;;;;1.60;1.48;;;;;;;21.01;43.43;100971.25;5022450;28;20060;-72
2023/11/08 07:45:16;;;;;;;1.25;1.10;;;;;;;20.96;43.62;100974.44;5025072;28;20087;-72
2023/11/08 07:47:42;;;;;;;1.20;1.10;;;;;;;20.97;43.89;100975.25;5026320;28;20084;-72
2023/11/08 07:50:09;;;;;;;1.52;1.30;;;;;;;20.94;43.82;100986.22;5020121;28;20049;-72
2023/11/08 07:52:34;;;;;;;1.70;1.23;;;;;;;20.89;43.99;100989.41;5032368;28;20136;-73
2023/11/08 07:55:00;;;;;;;3.42;1.33;;;;;;;20.85;44.12;100982.84;5024473;28;20033;-72
2023/11/08 07:57:26;;;;;;;1.27;1.08;;;;;;;20.89;43.93;100994.69;5030219;28;20594;-71
2023/11/08 07:59:51;;;;;;;1.17;1.08;;;;;;;20.89;44.18;100992.06;5028139;28;20103;-72
2023/11/08 08:02:17;;;;;;;1.27;1.17;;;;;;;20.88;44.15;100990.41;5021037;28;20478;-72
2023/11/08 08:04:42;;;;;;;1.55;1.20;;;;;;;20.87;43.96;100991.41;5025671;28;20738;-71
2023/11/08 08:07:09;;;;;;;1.90;1.40;;;;;;;20.68;44.12;100966.31;5025890;28;20034;-71
2023/11/08 08:09:35;;;;;;;1.85;1.30;;;;;;;20.85;44.16;100987.31;5019229;28;20065;-71
2023/11/08 08:12:00;;;;;;;1.77;1.27;;;;;;;20.75;44.11;100984.94;5027467;28;20090;-71
2023/11/08 08:14:26;;;;;;;1.77;1.30;;;;;;;20.84;44.20;101005.03;5028107;28;20037;-72
2023/11/08 08:16:52;;;;;;;1.65;1.20;;;;;;;20.75;43.84;100985.75;5018563;28;20506;-72
2023/11/08 08:19:17;;;;;;;2.38;1.42;;;;;;;20.75;44.21;100983.09;5029921;28;20045;-72
2023/11/08 08:21:47;;;;;;;1.73;1.50;;;;;;;20.76;44.15;100986.56;5028243;28;20114;-70
2023/11/08 08:24:15;;;;;;;3.13;1.83;;;;;;;20.82;44.11;100999.06;5021195;28;20506;-71
2023/11/08 08:26:40;;;;;;;1.48;1.30;;;;;;;20.81;44.15;100992.13;5025642;28;20057;-71
2023/11/08 08:29:08;;;;;;;2.03;1.65;;;;;;;20.80;43.96;100995.78;5027025;28;20064;-71
2023/11/08 08:31:34;;;;;;;1.38;1.27;;;;;;;20.79;44.27;100997.59;5024050;28;20467;-71
2023/11/08 08:34:00;;;;;;;2.03;1.33;;;;;;;20.79;44.25;101000.25;5029334;28;20033;-71
2023/11/08 08:36:25;;;;;;;2.35;1.35;;;;;;;20.78;44.26;100998.59;5026613;28;20548;-71
2023/11/08 08:38:51;;;;;;;3.30;1.60;;;;;;;20.79;44.46;101000.25;5026180;28;20041;-71
2023/11/08 08:41:18;;;;;;;1.30;1.20;;;;;;;20.77;44.30;100996.97;5026122;28;20038;-70
2023/11/08 08:43:43;;;;;;;1.63;1.38;;;;;;;20.60;44.00;100971.69;5027902;28;20045;-71
2023/11/08 08:46:09;;;;;;;1.83;1.50;;;;;;;20.71;43.99;100992.41;5028700;28;20044;-70
2023/11/08 08:48:34;;;;;;;1.77;1.50;;;;;;;20.75;44.15;100998.16;5027925;28;20044;-70
2023/11/08 08:51:02;;;;;;;1.77;1.60;;;;;;;20.74;44.00;101001.81;5026735;28;20503;-70
2023/11/08 08:53:28;;;;;;;1.70;1.60;;;;;;;20.74;44.12;100996.50;5028330;28;20132;-70
2023/11/08 08:55:53;;;;;;;1.80;1.55;;;;;;;20.79;43.98;101004.72;5018653;28;20048;-70
2023/11/08 08:58:19;;;;;;;1.58;1.48;;;;;;;20.69;44.09;100998.91;5026000;28;20041;-70
2023/11/08 09:00:45;;;;;;;1.70;1.55;;;;;;;20.78;44.00;100998.59;5024450;28;20044;-71
2023/11/08 09:03:10;;;;;;;2.08;1.70;;;;;;;20.62;43.89;100969.66;5025372;28;20495;-70
2023/11/08 09:05:36;;;;;;;2.08;1.63;;;;;;;21.00;43.68;101006.63;5022457;28;20037;-71
2023/11/08 09:08:02;;;;;;;1.67;1.42;;;;;;;21.17;43.57;101001.97;5032091;28;20043;-71
2023/11/08 09:10:28;;;;;;;3.05;1.50;;;;;;;21.20;43.33;101006.94;5019969;28;20547;-71
2023/11/08 09:12:54;;;;;;;2.20;1.70;;;;;;;21.21;43.28;101003.28;5030942;28;20475;-70
2023/11/08 09:15:19;;;;;;;2.55;1.77;;;;;;;21.17;43.48;101004.63;5023701;28;20042;-70
2023/11/08 09:17:46;;;;;;;1.63;1.50;;;;;;;21.12;43.67;101013.94;5033896;28;20037;-70
2023/11/08 09:20:12;;;;;;;1.67;1.58;;;;;;;21.11;43.84;101006.19;5029741;28;20134;-70
2023/11/08 09:22:40;;;;;;;2.45;1.75;;;;;;;21.05;43.74;101006.94;5027350;28;20040;-71
2023/11/08 09:25:08;;;;;;;2.30;1.75;;;;;;;21.08;43.60;101011.88;5024676;28;20649;-70
2023/11/08 09:27:35;;;;;;;1.60;1.50;;;;;;;21.07;43.47;101011.03;5029713;28;20049;-70
2023/11/08 09:30:00;;;;;;;1.55;1.45;;;;;;;21.07;44.00;101010.22;5025378;28;20996;-70
2023/11/08 09:32:27;;;;;;;1.95;1.35;;;;;;;21.07;43.93;101016.34;5020466;28;20053;-70
2023/11/08 09:34:53;;;;;;;1.70;1.60;;;;;;;21.05;43.91;101020.19;5021064;28;20183;-71
2023/11/08 09:37:19;;;;;;;1.85;1.65;;;;;;;21.00;43.78;101014.59;5003556;28;20435;-71
2023/11/08 09:39:48;;;;;;;2.17;1.52;;;;;;;21.03;43.98;101015.06;5030229;28;20053;-71
2023/11/08 09:42:17;;;;;;;1.70;1.42;;;;;;;21.05;43.86;101010.41;5025576;28;20048;-70
2023/11/08 09:44:46;;;;;;;1.83;1.47;;;;;;;21.02;43.82;101009.97;5030057;28;20534;-71
2023/11/08 09:47:12;;;;;;;3.08;1.70;;;;;;;21.02;43.83;101005.47;5022236;28;20083;-70
2023/11/08 09:49:38;;;;;;;2.53;1.58;;;;;;;21.02;43.86;100999.38;5016192;28;20131;-70
2023/11/08 09:52:04;;;;;;;2.92;1.85;;;;;;;21.02;43.74;101000.19;5027760;28;20124;-71
2023/11/08 09:54:30;;;;;;;2.78;2.00;;;;;;;21.01;43.79;100998.53;5024811;28;20570;-70
2023/11/08 09:56:58;;;;;;;1.63;1.52;;;;;;;21.04;43.79;101008.75;5027788;28;20071;-70
2023/11/08 09:59:27;;;;;;;2.40;1.80;;;;;;;21.00;44.05;101002.16;5023024;28;20037;-70
2023/11/08 10:01:53;;;;;;;3.17;1.80;;;;;;;21.01;43.88;100989.78;5023456;28;20041;-71
2023/11/08 10:04:23;;;;;;;3.03;1.83;;;;;;;21.01;43.67;100989.78;5014831;28;20041;-70
2023/11/08 10:06:49;;;;;;;2.70;1.67;;;;;;;21.00;43.76;101002.16;5019124;28;20037;-70
2023/11/08 10:09:16;;;;;;;2.28;1.83;;;;;;;20.96;43.95;100986.84;5019703;28;20068;-70
2023/11/08 10:11:42;;;;;;;1.83;1.50;;;;;;;20.98;43.67;100998.88;5022090;28;20828;-70
2023/11/08 10:14:08;;;;;;;1.65;1.42;;;;;;;20.99;43.90;100995.22;5004856;28;20069;-70
2023/11/08 10:16:48;;;;;;;2.55;1.60;;;;;;;20.94;44.11;100992.31;5027799;28;20049;-70
2023/11/08 10:19:14;;;;;;;2.10;1.50;;;;;;;20.98;43.93;100995.41;5028218;28;20049;-71
2023/11/08 10:21:50;;;;;;;2.17;1.38;;;;;;;20.87;43.69;100972.06;5022891;28;20048;-70
2023/11/08 10:24:17;;;;;;;2.00;1.60;;;;;;;20.96;43.74;100986.84;5022201;28;20057;-70
2023/11/08 10:26:43;;;;;;;1.70;1.60;;;;;;;20.96;43.82;100981.53;5026197;28;20387;-70
2023/11/08 10:29:11;;;;;;;2.70;1.70;;;;;;;20.93;43.92;100972.16;5022922;28;20045;-70
2023/11/08 10:31:40;;;;;;;1.98;1.70;;;;;;;20.94;43.66;100979.09;5017125;28;20491;-70
2023/11/08 10:34:16;;;;;;;1.92;1.70;;;;;;;20.95;43.91;100978.06;5030989;28;20099;-71
2023/11/08 10:36:41;;;;;;;1.70;1.60;;;;;;;20.84;44.02;100959.22;5025837;28;20044;-70
2023/11/08 10:39:19;;;;;;;1.98;1.52;;;;;;;20.93;43.99;100964.22;5027265;28;20142;-70
2023/11/08 10:41:47;;;;;;;2.03;1.70;;;;;;;20.95;43.64;100962.19;5017935;28;20029;-70
2023/11/08 10:44:22;;;;;;;1.70;1.48;;;;;;;20.97;43.71;100962.81;5022800;28;20041;-71
2023/11/08 10:46:57;;;;;;;2.80;1.85;;;;;;;21.18;43.21;100961.25;5025714;28;20034;-70
2023/11/08 10:49:23;;;;;;;3.80;1.83;;;;;;;21.30;43.19;100959.81;5017879;28;20041;-71
2023/11/08 10:51:50;;;;;;;1.95;1.60;;;;;;;21.32;43.03;100955.97;5028394;28;20048;-70
2023/11/08 10:54:16;;;;;;;1.42;1.33;;;;;;;21.31;43.07;100943.72;5021587;28;20041;-71
2023/11/08 10:56:45;;;;;;;1.60;1.50;;;;;;;21.23;43.08;100940.34;5028286;28;20071;-70
2023/11/08 10:59:12;;;;;;;1.95;1.63;;;;;;;21.26;43.35;100947.94;5030621;28;20032;-70
2023/11/08 11:01:39;;;;;;;2.38;1.77;;;;;;;21.23;43.58;100935.88;5022901;28;20037;-70
2023/11/08 11:04:09;;;;;;;1.98;1.60;;;;;;;21.18;43.62;100932.13;5017292;28;20057;-70
2023/11/08 11:06:36;;;;;;;1.52;1.30;;;;;;;21.18;43.27;100948.00;5019534;28;20741;-74
2023/11/08 11:09:10;;;;;;;3.90;1.70;;;;;;;21.18;43.39;100930.28;5020929;28;20087;-74
2023/11/08 11:11:42;;;;;;;1.38;1.25;;;;;;;21.13;43.46;100937.97;5030027;28;20041;-70
2023/11/08 11:14:27;;;;;;;2.78;1.45;;;;;;;21.02;43.21;100925.25;5027280;28;20458;-70
2023/11/08 11:16:59;;;;;;;3.00;1.38;;;;;;;21.00;43.26;100925.38;5019501;28;20049;-70
2023/11/08 11:19:28;;;;;;;3.08;1.30;;;;;;;20.93;43.09;100927.16;5022108;28;20577;-70
2023/11/08 11:22:01;;;;;;;3.47;1.30;;;;;;;20.83;43.65;100912.56;5022535;28;20032;-73